sensor_id;sensor_type;location;lat;lon;timestamp;temperature;humidity
4985;DHT22;2509;49.902;8.600;2023-12-20T00:02:01;4.90;99.90
4985;DHT22;2509;49.902;8.600;2023-12-20T00:05:03;4.90;99.90
4985;DHT22;2509;49.902;8.600;2023-12-20T00:08:05;4.80;99.90
4985;DHT22;2509;49.902;8.600;2023-12-20T00:11:07;4.80;99.90
4985;DHT22;2509;49.902;8.600;2023-12-20T00:14:10;4.80;99.90
4985;DHT22;2509;49.902;8.600;2023-12-20T00:17:12;4.80;99.90
4985;DHT22;2509;49.902;8.600;2023-12-20T00:20:14;4.80;99.90
4985;DHT22;2509;49.902;8.600;2023-12-20T00:23:15;4.80;99.90
4985;DHT22;2509;49.902;8.600;2023-12-20T00:26:17;4.80;99.90
4985;DHT22;2509;49.902;8.600;2023-12-20T00:29:20;4.80;99.90
4985;DHT22;2509;49.902;8.600;2023-12-20T00:32:22;4.80;99.90
4985;DHT22;2509;49.902;8.600;2023-12-20T00:35:24;4.80;99.90
4985;DHT22;2509;49.902;8.600;2023-12-20T00:38:25;4.80;99.90
4985;DHT22;2509;49.902;8.600;2023-12-20T00:41:27;4.80;99.90
4985;DHT22;2509;49.902;8.600;2023-12-20T00:44:30;4.80;99.90
4985;DHT22;2509;49.902;8.600;2023-12-20T00:47:32;4.80;99.90
4985;DHT22;2509;49.902;8.600;2023-12-20T00:50:34;4.70;99.90
4985;DHT22;2509;49.902;8.600;2023-12-20T00:53:35;4.80;99.90
4985;DHT22;2509;49.902;8.600;2023-12-20T00:56:37;4.80;99.90
4985;DHT22;2509;49.902;8.600;2023-12-20T00:59:40;4.80;99.90
4985;DHT22;2509;49.902;8.600;2023-12-20T01:02:42;4.80;99.90
4985;DHT22;2509;49.902;8.600;2023-12-20T01:05:44;4.70;99.90
4985;DHT22;2509;49.902;8.600;2023-12-20T01:08:46;4.80;99.90
4985;DHT22;2509;49.902;8.600;2023-12-20T01:11:47;4.80;99.90
4985;DHT22;2509;49.902;8.600;2023-12-20T01:14:50;4.70;99.90
4985;DHT22;2509;49.902;8.600;2023-12-20T01:17:53;4.80;99.90
4985;DHT22;2509;49.902;8.600;2023-12-20T01:20:54;4.80;99.90
4985;DHT22;2509;49.902;8.600;2023-12-20T01:23:56;4.80;99.90
4985;DHT22;2509;49.902;8.600;2023-12-20T01:26:58;4.70;99.90
4985;DHT22;2509;49.902;8.600;2023-12-20T01:30:01;4.80;99.90
4985;DHT22;2509;49.902;8.600;2023-12-20T01:33:03;4.70;99.90
4985;DHT22;2509;49.902;8.600;2023-12-20T01:36:05;4.70;99.90
4985;DHT22;2509;49.902;8.600;2023-12-20T01:39:07;4.70;99.90
4985;DHT22;2509;49.902;8.600;2023-12-20T01:42:09;4.70;99.90
4985;DHT22;2509;49.902;8.600;2023-12-20T01:45:12;4.70;99.90
4985;DHT22;2509;49.902;8.600;2023-12-20T01:48:15;4.70;99.90
4985;DHT22;2509;49.902;8.600;2023-12-20T01:51:17;4.70;99.90
4985;DHT22;2509;49.902;8.600;2023-12-20T01:54:19;4.70;99.90
4985;DHT22;2509;49.902;8.600;2023-12-20T01:57:22;4.70;99.90
4985;DHT22;2509;49.902;8.600;2023-12-20T02:00:26;4.70;99.90
4985;DHT22;2509;49.902;8.600;2023-12-20T02:03:29;4.70;99.90
4985;DHT22;2509;49.902;8.600;2023-12-20T02:06:31;4.70;99.90
4985;DHT22;2509;49.902;8.600;2023-12-20T02:09:35;4.70;99.90
4985;DHT22;2509;49.902;8.600;2023-12-20T02:12:38;4.70;99.90
4985;DHT22;2509;49.902;8.600;2023-12-20T02:15:41;4.70;99.90
4985;DHT22;2509;49.902;8.600;2023-12-20T02:18:44;4.70;99.90
4985;DHT22;2509;49.902;8.600;2023-12-20T02:21:47;4.70;99.90
4985;DHT22;2509;49.902;8.600;2023-12-20T02:24:49;4.70;99.90
4985;DHT22;2509;49.902;8.600;2023-12-20T02:27:50;4.70;99.90
4985;DHT22;2509;49.902;8.600;2023-12-20T02:30:53;4.70;99.90
4985;DHT22;2509;49.902;8.600;2023-12-20T02:33:54;4.70;99.90
4985;DHT22;2509;49.902;8.600;2023-12-20T02:36:57;4.70;99.90
4985;DHT22;2509;49.902;8.600;2023-12-20T02:39:59;4.70;99.90
4985;DHT22;2509;49.902;8.600;2023-12-20T02:43:01;4.70;99.90
4985;DHT22;2509;49.902;8.600;2023-12-20T02:46:03;4.70;99.90
4985;DHT22;2509;49.902;8.600;2023-12-20T02:49:05;4.70;99.90
4985;DHT22;2509;49.902;8.600;2023-12-20T02:52:08;4.70;99.90
4985;DHT22;2509;49.902;8.600;2023-12-20T02:55:10;4.70;99.90
4985;DHT22;2509;49.902;8.600;2023-12-20T02:58:12;4.70;99.90
4985;DHT22;2509;49.902;8.600;2023-12-20T03:01:14;4.70;99.90
4985;DHT22;2509;49.902;8.600;2023-12-20T03:04:15;4.70;99.90
4985;DHT22;2509;49.902;8.600;2023-12-20T03:07:18;4.70;99.90
4985;DHT22;2509;49.902;8.600;2023-12-20T03:10:20;4.70;99.90
4985;DHT22;2509;49.902;8.600;2023-12-20T03:13:22;4.70;99.90
4985;DHT22;2509;49.902;8.600;2023-12-20T03:16:24;4.70;99.90
4985;DHT22;2509;49.902;8.600;2023-12-20T03:19:26;4.70;99.90
4985;DHT22;2509;49.902;8.600;2023-12-20T03:22:29;4.70;99.90
4985;DHT22;2509;49.902;8.600;2023-12-20T03:25:30;4.80;99.90
4985;DHT22;2509;49.902;8.600;2023-12-20T03:28:32;4.80;99.90
4985;DHT22;2509;49.902;8.600;2023-12-20T03:31:34;4.80;99.90
4985;DHT22;2509;49.902;8.600;2023-12-20T03:34:36;4.80;99.90
4985;DHT22;2509;49.902;8.600;2023-12-20T03:37:39;4.80;99.90
4985;DHT22;2509;49.902;8.600;2023-12-20T03:40:40;4.80;99.90
4985;DHT22;2509;49.902;8.600;2023-12-20T03:43:42;4.80;99.90
4985;DHT22;2509;49.902;8.600;2023-12-20T03:46:44;4.80;99.90
4985;DHT22;2509;49.902;8.600;2023-12-20T03:49:46;4.80;99.90
4985;DHT22;2509;49.902;8.600;2023-12-20T03:52:49;4.80;99.90
4985;DHT22;2509;49.902;8.600;2023-12-20T03:55:51;4.80;99.90
4985;DHT22;2509;49.902;8.600;2023-12-20T03:58:53;4.80;99.90
4985;DHT22;2509;49.902;8.600;2023-12-20T04:01:55;4.80;99.90
4985;DHT22;2509;49.902;8.600;2023-12-20T04:04:57;4.90;99.90
4985;DHT22;2509;49.902;8.600;2023-12-20T04:08:01;4.90;99.90
4985;DHT22;2509;49.902;8.600;2023-12-20T04:11:03;4.90;99.90
4985;DHT22;2509;49.902;8.600;2023-12-20T04:14:05;4.90;99.90
4985;DHT22;2509;49.902;8.600;2023-12-20T04:17:07;4.90;99.90
4985;DHT22;2509;49.902;8.600;2023-12-20T04:20:10;4.90;99.90
4985;DHT22;2509;49.902;8.600;2023-12-20T04:23:13;4.90;99.90
4985;DHT22;2509;49.902;8.600;2023-12-20T04:26:15;4.90;99.90
4985;DHT22;2509;49.902;8.600;2023-12-20T04:29:16;4.90;99.90
4985;DHT22;2509;49.902;8.600;2023-12-20T04:32:18;4.90;99.90
4985;DHT22;2509;49.902;8.600;2023-12-20T04:35:20;4.90;99.90
4985;DHT22;2509;49.902;8.600;2023-12-20T04:38:23;5.00;99.90
4985;DHT22;2509;49.902;8.600;2023-12-20T04:41:24;4.90;99.90
4985;DHT22;2509;49.902;8.600;2023-12-20T04:44:28;5.00;99.90
4985;DHT22;2509;49.902;8.600;2023-12-20T04:47:29;5.00;99.90
4985;DHT22;2509;49.902;8.600;2023-12-20T04:50:31;5.00;99.90
4985;DHT22;2509;49.902;8.600;2023-12-20T04:53:35;5.00;99.90
4985;DHT22;2509;49.902;8.600;2023-12-20T04:56:36;5.00;99.90
4985;DHT22;2509;49.902;8.600;2023-12-20T04:59:38;5.00;99.90
4985;DHT22;2509;49.902;8.600;2023-12-20T05:02:40;5.00;99.90
4985;DHT22;2509;49.902;8.600;2023-12-20T05:05:41;5.00;99.90
4985;DHT22;2509;49.902;8.600;2023-12-20T05:08:44;5.00;99.90
4985;DHT22;2509;49.902;8.600;2023-12-20T05:11:46;5.00;99.90
4985;DHT22;2509;49.902;8.600;2023-12-20T05:14:48;4.90;99.90
4985;DHT22;2509;49.902;8.600;2023-12-20T05:17:50;4.90;99.90
4985;DHT22;2509;49.902;8.600;2023-12-20T05:20:52;4.80;99.90
4985;DHT22;2509;49.902;8.600;2023-12-20T05:23:55;4.70;99.90
4985;DHT22;2509;49.902;8.600;2023-12-20T05:26:56;4.70;99.90
4985;DHT22;2509;49.902;8.600;2023-12-20T05:29:58;4.70;99.90
4985;DHT22;2509;49.902;8.600;2023-12-20T05:33:00;4.60;99.90
4985;DHT22;2509;49.902;8.600;2023-12-20T05:36:02;4.60;99.90
4985;DHT22;2509;49.902;8.600;2023-12-20T05:39:05;4.60;99.90
4985;DHT22;2509;49.902;8.600;2023-12-20T05:42:08;4.60;99.90
4985;DHT22;2509;49.902;8.600;2023-12-20T05:45:09;4.60;99.90
4985;DHT22;2509;49.902;8.600;2023-12-20T05:48:11;4.60;99.90
4985;DHT22;2509;49.902;8.600;2023-12-20T05:51:13;4.60;99.90
4985;DHT22;2509;49.902;8.600;2023-12-20T05:54:16;4.60;99.90
4985;DHT22;2509;49.902;8.600;2023-12-20T05:57:18;4.50;99.90
4985;DHT22;2509;49.902;8.600;2023-12-20T06:00:20;4.50;99.90
4985;DHT22;2509;49.902;8.600;2023-12-20T06:03:21;4.50;99.90
4985;DHT22;2509;49.902;8.600;2023-12-20T06:06:24;4.50;99.90
4985;DHT22;2509;49.902;8.600;2023-12-20T06:09:28;4.50;99.90
4985;DHT22;2509;49.902;8.600;2023-12-20T06:12:30;4.50;99.90
4985;DHT22;2509;49.902;8.600;2023-12-20T06:15:33;4.40;99.90
4985;DHT22;2509;49.902;8.600;2023-12-20T06:18:36;4.40;99.90
4985;DHT22;2509;49.902;8.600;2023-12-20T06:21:37;4.40;99.90
4985;DHT22;2509;49.902;8.600;2023-12-20T06:24:41;4.40;99.90
4985;DHT22;2509;49.902;8.600;2023-12-20T06:27:42;4.30;99.90
4985;DHT22;2509;49.902;8.600;2023-12-20T06:30:44;4.30;99.90
4985;DHT22;2509;49.902;8.600;2023-12-20T06:33:47;4.30;99.90
4985;DHT22;2509;49.902;8.600;2023-12-20T06:36:57;4.20;99.90
4985;DHT22;2509;49.902;8.600;2023-12-20T06:40:00;4.20;99.90
4985;DHT22;2509;49.902;8.600;2023-12-20T06:43:02;4.10;99.90
4985;DHT22;2509;49.902;8.600;2023-12-20T06:46:04;4.10;99.90
4985;DHT22;2509;49.902;8.600;2023-12-20T06:49:06;4.00;99.90
4985;DHT22;2509;49.902;8.600;2023-12-20T06:52:07;4.00;99.90
4985;DHT22;2509;49.902;8.600;2023-12-20T06:55:11;3.90;99.90
4985;DHT22;2509;49.902;8.600;2023-12-20T06:58:12;3.90;99.90
4985;DHT22;2509;49.902;8.600;2023-12-20T07:01:15;3.90;99.90
4985;DHT22;2509;49.902;8.600;2023-12-20T07:04:17;3.80;99.90
4985;DHT22;2509;49.902;8.600;2023-12-20T07:07:20;3.80;99.90
4985;DHT22;2509;49.902;8.600;2023-12-20T07:10:25;3.80;99.90
4985;DHT22;2509;49.902;8.600;2023-12-20T07:13:26;3.80;99.90
4985;DHT22;2509;49.902;8.600;2023-12-20T07:16:28;3.80;99.90
4985;DHT22;2509;49.902;8.600;2023-12-20T07:19:30;3.70;99.90
4985;DHT22;2509;49.902;8.600;2023-12-20T07:22:33;3.70;99.90
4985;DHT22;2509;49.902;8.600;2023-12-20T07:25:36;3.70;99.90
4985;DHT22;2509;49.902;8.600;2023-12-20T07:28:38;3.70;99.90
4985;DHT22;2509;49.902;8.600;2023-12-20T07:31:41;3.70;99.90
4985;DHT22;2509;49.902;8.600;2023-12-20T07:34:42;3.70;99.90
4985;DHT22;2509;49.902;8.600;2023-12-20T07:37:44;3.70;99.90
4985;DHT22;2509;49.902;8.600;2023-12-20T07:40:47;3.70;99.90
4985;DHT22;2509;49.902;8.600;2023-12-20T07:43:49;3.70;99.90
4985;DHT22;2509;49.902;8.600;2023-12-20T07:46:51;3.80;99.90
4985;DHT22;2509;49.902;8.600;2023-12-20T07:49:52;3.80;99.90
4985;DHT22;2509;49.902;8.600;2023-12-20T07:52:54;3.80;99.90
4985;DHT22;2509;49.902;8.600;2023-12-20T07:55:57;3.90;99.90
4985;DHT22;2509;49.902;8.600;2023-12-20T07:58:59;3.90;99.90
4985;DHT22;2509;49.902;8.600;2023-12-20T08:02:01;4.00;99.90
4985;DHT22;2509;49.902;8.600;2023-12-20T08:05:04;4.00;99.90
4985;DHT22;2509;49.902;8.600;2023-12-20T08:08:06;4.00;99.90
4985;DHT22;2509;49.902;8.600;2023-12-20T08:11:09;4.00;99.90
4985;DHT22;2509;49.902;8.600;2023-12-20T08:14:11;4.00;99.90
4985;DHT22;2509;49.902;8.600;2023-12-20T08:17:13;4.00;99.90
4985;DHT22;2509;49.902;8.600;2023-12-20T08:20:16;4.00;99.90
4985;DHT22;2509;49.902;8.600;2023-12-20T08:23:18;3.90;99.90
4985;DHT22;2509;49.902;8.600;2023-12-20T08:26:22;4.00;99.90
4985;DHT22;2509;49.902;8.600;2023-12-20T08:29:24;4.10;99.90
4985;DHT22;2509;49.902;8.600;2023-12-20T08:32:26;4.20;99.90
4985;DHT22;2509;49.902;8.600;2023-12-20T08:35:28;4.20;99.90
4985;DHT22;2509;49.902;8.600;2023-12-20T08:38:30;4.20;99.90
4985;DHT22;2509;49.902;8.600;2023-12-20T08:41:33;4.30;99.90
4985;DHT22;2509;49.902;8.600;2023-12-20T08:44:34;4.30;99.90
4985;DHT22;2509;49.902;8.600;2023-12-20T08:47:36;4.30;99.90
4985;DHT22;2509;49.902;8.600;2023-12-20T08:50:38;4.40;99.90
4985;DHT22;2509;49.902;8.600;2023-12-20T08:53:40;4.40;99.90
4985;DHT22;2509;49.902;8.600;2023-12-20T08:56:43;4.40;99.90
4985;DHT22;2509;49.902;8.600;2023-12-20T08:59:45;4.40;99.90
4985;DHT22;2509;49.902;8.600;2023-12-20T09:02:46;4.40;99.90
4985;DHT22;2509;49.902;8.600;2023-12-20T09:05:48;4.50;99.90
4985;DHT22;2509;49.902;8.600;2023-12-20T09:08:50;4.50;99.90
4985;DHT22;2509;49.902;8.600;2023-12-20T09:11:53;4.60;99.90
4985;DHT22;2509;49.902;8.600;2023-12-20T09:14:55;4.60;99.90
4985;DHT22;2509;49.902;8.600;2023-12-20T09:17:56;4.60;99.90
4985;DHT22;2509;49.902;8.600;2023-12-20T09:20:59;4.60;99.90
4985;DHT22;2509;49.902;8.600;2023-12-20T09:24:00;4.70;99.90
4985;DHT22;2509;49.902;8.600;2023-12-20T09:27:04;4.70;99.90
4985;DHT22;2509;49.902;8.600;2023-12-20T09:30:06;4.70;99.90
4985;DHT22;2509;49.902;8.600;2023-12-20T09:33:08;4.70;99.90
4985;DHT22;2509;49.902;8.600;2023-12-20T09:36:10;4.80;99.90
4985;DHT22;2509;49.902;8.600;2023-12-20T09:39:12;4.80;99.90
4985;DHT22;2509;49.902;8.600;2023-12-20T09:42:21;4.80;99.90
4985;DHT22;2509;49.902;8.600;2023-12-20T09:45:24;4.90;99.90
4985;DHT22;2509;49.902;8.600;2023-12-20T09:48:26;5.00;99.90
4985;DHT22;2509;49.902;8.600;2023-12-20T09:51:29;5.00;99.90
4985;DHT22;2509;49.902;8.600;2023-12-20T09:54:31;5.10;99.90
4985;DHT22;2509;49.902;8.600;2023-12-20T09:57:35;5.10;99.90
4985;DHT22;2509;49.902;8.600;2023-12-20T10:00:37;5.20;99.90
4985;DHT22;2509;49.902;8.600;2023-12-20T10:03:39;5.20;99.90
4985;DHT22;2509;49.902;8.600;2023-12-20T10:06:43;5.30;99.90
4985;DHT22;2509;49.902;8.600;2023-12-20T10:09:45;5.40;99.90
4985;DHT22;2509;49.902;8.600;2023-12-20T10:13:03;5.40;99.90
4985;DHT22;2509;49.902;8.600;2023-12-20T10:16:06;5.50;99.90
4985;DHT22;2509;49.902;8.600;2023-12-20T10:19:08;5.50;99.90
4985;DHT22;2509;49.902;8.600;2023-12-20T10:22:10;5.50;99.90
4985;DHT22;2509;49.902;8.600;2023-12-20T10:25:12;5.50;99.90
4985;DHT22;2509;49.902;8.600;2023-12-20T10:28:15;5.60;99.90
4985;DHT22;2509;49.902;8.600;2023-12-20T10:31:29;5.60;99.90
4985;DHT22;2509;49.902;8.600;2023-12-20T10:34:32;5.70;99.90
4985;DHT22;2509;49.902;8.600;2023-12-20T10:37:35;5.70;99.90
4985;DHT22;2509;49.902;8.600;2023-12-20T10:40:38;5.70;99.90
4985;DHT22;2509;49.902;8.600;2023-12-20T10:43:41;5.80;99.90
4985;DHT22;2509;49.902;8.600;2023-12-20T10:46:43;5.80;99.90
4985;DHT22;2509;49.902;8.600;2023-12-20T10:49:52;5.80;99.90
4985;DHT22;2509;49.902;8.600;2023-12-20T10:52:55;5.90;99.90
4985;DHT22;2509;49.902;8.600;2023-12-20T10:56:00;5.90;99.90
4985;DHT22;2509;49.902;8.600;2023-12-20T10:59:06;5.90;99.90
4985;DHT22;2509;49.902;8.600;2023-12-20T11:02:10;5.90;99.90
4985;DHT22;2509;49.902;8.600;2023-12-20T11:05:22;6.00;99.90
4985;DHT22;2509;49.902;8.600;2023-12-20T11:08:33;6.00;99.90
4985;DHT22;2509;49.902;8.600;2023-12-20T11:11:43;6.00;99.90
4985;DHT22;2509;49.902;8.600;2023-12-20T11:14:50;6.10;99.90
4985;DHT22;2509;49.902;8.600;2023-12-20T11:17:55;6.10;99.90
4985;DHT22;2509;49.902;8.600;2023-12-20T11:21:00;6.10;99.90
4985;DHT22;2509;49.902;8.600;2023-12-20T11:24:04;6.10;99.90
4985;DHT22;2509;49.902;8.600;2023-12-20T11:27:06;6.20;99.90
4985;DHT22;2509;49.902;8.600;2023-12-20T11:30:10;6.20;99.90
4985;DHT22;2509;49.902;8.600;2023-12-20T11:33:13;6.30;99.90
4985;DHT22;2509;49.902;8.600;2023-12-20T11:36:18;6.30;99.90
4985;DHT22;2509;49.902;8.600;2023-12-20T11:39:21;6.30;99.90
4985;DHT22;2509;49.902;8.600;2023-12-20T11:42:23;6.30;99.90
4985;DHT22;2509;49.902;8.600;2023-12-20T11:45:26;6.40;99.90
4985;DHT22;2509;49.902;8.600;2023-12-20T11:48:30;6.40;99.90
4985;DHT22;2509;49.902;8.600;2023-12-20T11:51:32;6.40;99.90
4985;DHT22;2509;49.902;8.600;2023-12-20T11:54:34;6.40;99.90
4985;DHT22;2509;49.902;8.600;2023-12-20T11:57:36;6.40;99.90
4985;DHT22;2509;49.902;8.600;2023-12-20T12:00:39;6.40;99.90
4985;DHT22;2509;49.902;8.600;2023-12-20T12:03:41;6.40;99.90
4985;DHT22;2509;49.902;8.600;2023-12-20T12:06:43;6.40;99.90
4985;DHT22;2509;49.902;8.600;2023-12-20T12:09:45;6.40;99.90
4985;DHT22;2509;49.902;8.600;2023-12-20T12:12:47;6.30;99.90
4985;DHT22;2509;49.902;8.600;2023-12-20T12:15:50;6.30;99.90
4985;DHT22;2509;49.902;8.600;2023-12-20T12:18:56;6.30;99.90
4985;DHT22;2509;49.902;8.600;2023-12-20T12:22:04;6.30;99.90
4985;DHT22;2509;49.902;8.600;2023-12-20T12:25:11;6.20;99.90
4985;DHT22;2509;49.902;8.600;2023-12-20T12:28:13;6.20;99.90
4985;DHT22;2509;49.902;8.600;2023-12-20T12:31:16;6.30;99.90
4985;DHT22;2509;49.902;8.600;2023-12-20T12:34:18;6.30;99.90
4985;DHT22;2509;49.902;8.600;2023-12-20T12:37:20;6.40;99.90
4985;DHT22;2509;49.902;8.600;2023-12-20T12:40:22;6.50;99.90
4985;DHT22;2509;49.902;8.600;2023-12-20T12:43:23;6.60;99.90
4985;DHT22;2509;49.902;8.600;2023-12-20T12:46:26;6.80;99.90
4985;DHT22;2509;49.902;8.600;2023-12-20T12:49:28;7.10;99.90
4985;DHT22;2509;49.902;8.600;2023-12-20T12:52:30;7.40;99.90
4985;DHT22;2509;49.902;8.600;2023-12-20T12:55:33;7.50;99.90
4985;DHT22;2509;49.902;8.600;2023-12-20T12:58:35;7.40;99.90
4985;DHT22;2509;49.902;8.600;2023-12-20T13:01:38;7.20;99.90
4985;DHT22;2509;49.902;8.600;2023-12-20T13:04:40;7.10;99.90
4985;DHT22;2509;49.902;8.600;2023-12-20T13:07:43;7.10;99.90
4985;DHT22;2509;49.902;8.600;2023-12-20T13:10:45;7.00;99.90
4985;DHT22;2509;49.902;8.600;2023-12-20T13:13:47;7.00;99.90
4985;DHT22;2509;49.902;8.600;2023-12-20T13:16:50;7.30;99.90
4985;DHT22;2509;49.902;8.600;2023-12-20T13:19:52;7.30;99.90
4985;DHT22;2509;49.902;8.600;2023-12-20T13:22:54;7.30;99.90
4985;DHT22;2509;49.902;8.600;2023-12-20T13:25:55;7.40;99.90
4985;DHT22;2509;49.902;8.600;2023-12-20T13:28:57;7.70;99.90
4985;DHT22;2509;49.902;8.600;2023-12-20T13:32:00;8.10;99.90
4985;DHT22;2509;49.902;8.600;2023-12-20T13:35:04;8.60;99.90
4985;DHT22;2509;49.902;8.600;2023-12-20T13:38:06;8.40;99.90
4985;DHT22;2509;49.902;8.600;2023-12-20T13:41:08;8.10;99.90
4985;DHT22;2509;49.902;8.600;2023-12-20T13:44:10;8.20;99.90
4985;DHT22;2509;49.902;8.600;2023-12-20T13:47:14;7.90;99.90
4985;DHT22;2509;49.902;8.600;2023-12-20T13:50:16;7.60;99.90
4985;DHT22;2509;49.902;8.600;2023-12-20T13:53:17;7.40;99.90
4985;DHT22;2509;49.902;8.600;2023-12-20T13:56:19;7.40;99.90
4985;DHT22;2509;49.902;8.600;2023-12-20T13:59:21;7.30;99.90
4985;DHT22;2509;49.902;8.600;2023-12-20T14:02:24;7.10;99.90
4985;DHT22;2509;49.902;8.600;2023-12-20T14:05:27;7.10;99.90
4985;DHT22;2509;49.902;8.600;2023-12-20T14:08:29;7.10;99.90
4985;DHT22;2509;49.902;8.600;2023-12-20T14:11:30;7.00;99.90
4985;DHT22;2509;49.902;8.600;2023-12-20T14:14:32;6.90;99.90
4985;DHT22;2509;49.902;8.600;2023-12-20T14:17:35;6.90;99.90
4985;DHT22;2509;49.902;8.600;2023-12-20T14:20:37;6.90;99.90
4985;DHT22;2509;49.902;8.600;2023-12-20T14:23:40;6.70;99.90
4985;DHT22;2509;49.902;8.600;2023-12-20T14:26:41;6.80;99.90
4985;DHT22;2509;49.902;8.600;2023-12-20T14:29:43;6.70;99.90
4985;DHT22;2509;49.902;8.600;2023-12-20T14:32:46;6.80;99.90
4985;DHT22;2509;49.902;8.600;2023-12-20T14:35:48;6.80;99.90
4985;DHT22;2509;49.902;8.600;2023-12-20T14:38:50;6.60;99.90
4985;DHT22;2509;49.902;8.600;2023-12-20T14:41:52;6.70;99.90
4985;DHT22;2509;49.902;8.600;2023-12-20T14:44:54;6.60;99.90
4985;DHT22;2509;49.902;8.600;2023-12-20T14:47:57;6.60;99.90
4985;DHT22;2509;49.902;8.600;2023-12-20T14:51:00;6.70;99.90
4985;DHT22;2509;49.902;8.600;2023-12-20T14:54:02;6.80;99.90
4985;DHT22;2509;49.902;8.600;2023-12-20T14:57:04;6.60;99.90
4985;DHT22;2509;49.902;8.600;2023-12-20T15:00:06;6.70;99.90
4985;DHT22;2509;49.902;8.600;2023-12-20T15:03:10;6.70;99.90
4985;DHT22;2509;49.902;8.600;2023-12-20T15:06:11;6.60;99.90
4985;DHT22;2509;49.902;8.600;2023-12-20T15:09:13;6.60;99.90
4985;DHT22;2509;49.902;8.600;2023-12-20T15:12:15;6.60;99.90
4985;DHT22;2509;49.902;8.600;2023-12-20T15:15:16;6.60;99.90
4985;DHT22;2509;49.902;8.600;2023-12-20T15:18:20;6.60;99.90
4985;DHT22;2509;49.902;8.600;2023-12-20T15:21:22;6.50;99.90
4985;DHT22;2509;49.902;8.600;2023-12-20T15:24:31;6.50;99.90
4985;DHT22;2509;49.902;8.600;2023-12-20T15:27:38;6.50;99.90
4985;DHT22;2509;49.902;8.600;2023-12-20T15:30:40;6.40;99.90
4985;DHT22;2509;49.902;8.600;2023-12-20T15:33:43;6.40;99.90
4985;DHT22;2509;49.902;8.600;2023-12-20T15:36:45;6.50;99.90
4985;DHT22;2509;49.902;8.600;2023-12-20T15:39:47;6.40;99.90
4985;DHT22;2509;49.902;8.600;2023-12-20T15:42:49;6.40;99.90
4985;DHT22;2509;49.902;8.600;2023-12-20T15:45:51;6.40;99.90
4985;DHT22;2509;49.902;8.600;2023-12-20T15:48:54;6.40;99.90
4985;DHT22;2509;49.902;8.600;2023-12-20T15:51:55;6.40;99.90
4985;DHT22;2509;49.902;8.600;2023-12-20T15:54:57;6.40;99.90
4985;DHT22;2509;49.902;8.600;2023-12-20T15:57:59;6.40;99.90
4985;DHT22;2509;49.902;8.600;2023-12-20T16:01:01;6.40;99.90
4985;DHT22;2509;49.902;8.600;2023-12-20T16:04:04;6.30;99.90
4985;DHT22;2509;49.902;8.600;2023-12-20T16:07:06;6.30;99.90
4985;DHT22;2509;49.902;8.600;2023-12-20T16:10:08;6.30;99.90
4985;DHT22;2509;49.902;8.600;2023-12-20T16:13:09;6.30;99.90
4985;DHT22;2509;49.902;8.600;2023-12-20T16:16:11;6.30;99.90
4985;DHT22;2509;49.902;8.600;2023-12-20T16:19:14;6.30;99.90
4985;DHT22;2509;49.902;8.600;2023-12-20T16:22:16;6.20;99.90
4985;DHT22;2509;49.902;8.600;2023-12-20T16:25:18;6.20;99.90
4985;DHT22;2509;49.902;8.600;2023-12-20T16:28:19;6.20;99.90
4985;DHT22;2509;49.902;8.600;2023-12-20T16:31:21;6.20;99.90
4985;DHT22;2509;49.902;8.600;2023-12-20T16:34:24;6.20;99.90
4985;DHT22;2509;49.902;8.600;2023-12-20T16:37:26;6.30;99.90
4985;DHT22;2509;49.902;8.600;2023-12-20T16:40:28;6.30;99.90
4985;DHT22;2509;49.902;8.600;2023-12-20T16:43:30;6.30;99.90
4985;DHT22;2509;49.902;8.600;2023-12-20T16:46:31;6.30;99.90
4985;DHT22;2509;49.902;8.600;2023-12-20T16:49:34;6.30;99.90
4985;DHT22;2509;49.902;8.600;2023-12-20T16:52:36;6.30;99.90
4985;DHT22;2509;49.902;8.600;2023-12-20T16:55:38;6.40;99.90
4985;DHT22;2509;49.902;8.600;2023-12-20T16:58:41;6.50;99.90
4985;DHT22;2509;49.902;8.600;2023-12-20T17:01:43;6.50;99.90
4985;DHT22;2509;49.902;8.600;2023-12-20T17:04:47;6.50;99.90
4985;DHT22;2509;49.902;8.600;2023-12-20T17:07:49;6.50;99.90
4985;DHT22;2509;49.902;8.600;2023-12-20T17:10:51;6.60;99.90
4985;DHT22;2509;49.902;8.600;2023-12-20T17:13:53;6.60;99.90
4985;DHT22;2509;49.902;8.600;2023-12-20T17:16:54;6.60;99.90
4985;DHT22;2509;49.902;8.600;2023-12-20T17:19:57;6.60;99.90
4985;DHT22;2509;49.902;8.600;2023-12-20T17:22:59;6.60;99.90
4985;DHT22;2509;49.902;8.600;2023-12-20T17:26:01;6.60;99.90
4985;DHT22;2509;49.902;8.600;2023-12-20T17:29:02;6.60;99.90
4985;DHT22;2509;49.902;8.600;2023-12-20T17:32:04;6.60;99.90
4985;DHT22;2509;49.902;8.600;2023-12-20T17:35:08;6.70;99.90
4985;DHT22;2509;49.902;8.600;2023-12-20T17:38:09;6.70;99.90
4985;DHT22;2509;49.902;8.600;2023-12-20T17:41:11;6.70;99.90
4985;DHT22;2509;49.902;8.600;2023-12-20T17:44:13;6.70;99.90
4985;DHT22;2509;49.902;8.600;2023-12-20T17:47:16;6.70;99.90
4985;DHT22;2509;49.902;8.600;2023-12-20T17:50:19;6.70;99.90
4985;DHT22;2509;49.902;8.600;2023-12-20T17:53:21;6.70;99.90
4985;DHT22;2509;49.902;8.600;2023-12-20T17:56:23;6.70;99.90
4985;DHT22;2509;49.902;8.600;2023-12-20T17:59:24;6.70;99.90
4985;DHT22;2509;49.902;8.600;2023-12-20T18:02:26;6.70;99.90
4985;DHT22;2509;49.902;8.600;2023-12-20T18:05:29;6.80;99.90
4985;DHT22;2509;49.902;8.600;2023-12-20T18:08:31;6.80;99.90
4985;DHT22;2509;49.902;8.600;2023-12-20T18:11:33;6.70;99.90
4985;DHT22;2509;49.902;8.600;2023-12-20T18:14:34;6.80;99.90
4985;DHT22;2509;49.902;8.600;2023-12-20T18:17:36;6.80;99.90
4985;DHT22;2509;49.902;8.600;2023-12-20T18:20:39;6.80;99.90
4985;DHT22;2509;49.902;8.600;2023-12-20T18:23:41;6.80;99.90
4985;DHT22;2509;49.902;8.600;2023-12-20T18:26:42;6.80;99.90
4985;DHT22;2509;49.902;8.600;2023-12-20T18:29:44;6.80;99.90
4985;DHT22;2509;49.902;8.600;2023-12-20T18:32:46;6.80;99.90
4985;DHT22;2509;49.902;8.600;2023-12-20T18:35:49;6.80;99.90
4985;DHT22;2509;49.902;8.600;2023-12-20T18:38:51;6.90;99.90
4985;DHT22;2509;49.902;8.600;2023-12-20T18:41:53;6.90;99.90
4985;DHT22;2509;49.902;8.600;2023-12-20T18:44:54;6.90;99.90
4985;DHT22;2509;49.902;8.600;2023-12-20T18:47:56;6.90;99.90
4985;DHT22;2509;49.902;8.600;2023-12-20T18:50:59;6.90;99.90
4985;DHT22;2509;49.902;8.600;2023-12-20T18:54:02;6.90;99.90
4985;DHT22;2509;49.902;8.600;2023-12-20T18:57:04;7.00;99.90
4985;DHT22;2509;49.902;8.600;2023-12-20T19:00:08;7.00;99.90
4985;DHT22;2509;49.902;8.600;2023-12-20T19:03:11;7.00;99.90
4985;DHT22;2509;49.902;8.600;2023-12-20T19:06:14;7.00;99.90
4985;DHT22;2509;49.902;8.600;2023-12-20T19:09:16;7.00;99.90
4985;DHT22;2509;49.902;8.600;2023-12-20T19:12:23;7.10;99.90
4985;DHT22;2509;49.902;8.600;2023-12-20T19:15:27;7.10;99.90
4985;DHT22;2509;49.902;8.600;2023-12-20T19:18:29;7.10;99.90
4985;DHT22;2509;49.902;8.600;2023-12-20T19:21:32;7.10;99.90
4985;DHT22;2509;49.902;8.600;2023-12-20T19:24:34;7.10;99.90
4985;DHT22;2509;49.902;8.600;2023-12-20T19:27:36;7.10;99.90
4985;DHT22;2509;49.902;8.600;2023-12-20T19:30:38;7.10;99.90
4985;DHT22;2509;49.902;8.600;2023-12-20T19:33:40;7.10;99.90
4985;DHT22;2509;49.902;8.600;2023-12-20T19:36:43;7.10;99.90
4985;DHT22;2509;49.902;8.600;2023-12-20T19:39:45;7.10;99.90
4985;DHT22;2509;49.902;8.600;2023-12-20T19:42:47;7.10;99.90
4985;DHT22;2509;49.902;8.600;2023-12-20T19:45:48;7.10;99.90
4985;DHT22;2509;49.902;8.600;2023-12-20T19:48:50;7.10;99.90
4985;DHT22;2509;49.902;8.600;2023-12-20T19:51:53;7.00;99.90
4985;DHT22;2509;49.902;8.600;2023-12-20T19:54:55;7.00;99.90
4985;DHT22;2509;49.902;8.600;2023-12-20T19:57:59;7.10;99.90
4985;DHT22;2509;49.902;8.600;2023-12-20T20:01:01;7.10;99.90
4985;DHT22;2509;49.902;8.600;2023-12-20T20:04:03;7.10;99.90
4985;DHT22;2509;49.902;8.600;2023-12-20T20:07:06;7.10;99.90
4985;DHT22;2509;49.902;8.600;2023-12-20T20:10:13;7.10;99.90